sensor_id;sensor_type;location;lat;lon;timestamp;pressure;altitude;pressure_sealevel;temperature
4421;BMP180;11824;51.178;13.546;2023-05-07T00:00:37;100659.00;;;10.70
4421;BMP180;11824;51.178;13.546;2023-05-07T00:03:04;100664.00;;;10.70
4421;BMP180;11824;51.178;13.546;2023-05-07T00:05:32;100662.00;;;10.70
4421;BMP180;11824;51.178;13.546;2023-05-07T00:08:00;100662.00;;;10.70
4421;BMP180;11824;51.178;13.546;2023-05-07T00:10:27;100677.00;;;10.70
4421;BMP180;11824;51.178;13.546;2023-05-07T00:12:55;100672.00;;;10.70
4421;BMP180;11824;51.178;13.546;2023-05-07T00:15:23;100666.00;;;10.70
4421;BMP180;11824;51.178;13.546;2023-05-07T00:17:50;100676.00;;;10.60
4421;BMP180;11824;51.178;13.546;2023-05-07T00:20:18;100681.00;;;10.60
4421;BMP180;11824;51.178;13.546;2023-05-07T00:22:45;100668.00;;;10.60
4421;BMP180;11824;51.178;13.546;2023-05-07T00:25:13;100670.00;;;10.70
4421;BMP180;11824;51.178;13.546;2023-05-07T00:27:41;100676.00;;;10.70
4421;BMP180;11824;51.178;13.546;2023-05-07T00:30:09;100675.00;;;10.70
4421;BMP180;11824;51.178;13.546;2023-05-07T00:32:37;100682.00;;;10.70
4421;BMP180;11824;51.178;13.546;2023-05-07T00:35:06;100674.00;;;10.70
4421;BMP180;11824;51.178;13.546;2023-05-07T00:37:34;100669.00;;;10.70
4421;BMP180;11824;51.178;13.546;2023-05-07T00:40:01;100674.00;;;10.70
4421;BMP180;11824;51.178;13.546;2023-05-07T00:42:32;100674.00;;;10.70
4421;BMP180;11824;51.178;13.546;2023-05-07T00:44:59;100666.00;;;10.70
4421;BMP180;11824;51.178;13.546;2023-05-07T00:47:27;100673.00;;;10.70
4421;BMP180;11824;51.178;13.546;2023-05-07T00:49:54;100671.00;;;10.70
4421;BMP180;11824;51.178;13.546;2023-05-07T00:52:25;100669.00;;;10.70
4421;BMP180;11824;51.178;13.546;2023-05-07T00:54:53;100669.00;;;10.70
4421;BMP180;11824;51.178;13.546;2023-05-07T00:57:22;100666.00;;;10.70
4421;BMP180;11824;51.178;13.546;2023-05-07T00:59:53;100667.00;;;10.70
4421;BMP180;11824;51.178;13.546;2023-05-07T01:02:21;100666.00;;;10.70
4421;BMP180;11824;51.178;13.546;2023-05-07T01:04:49;100661.00;;;10.70
4421;BMP180;11824;51.178;13.546;2023-05-07T01:07:17;100664.00;;;10.70
4421;BMP180;11824;51.178;13.546;2023-05-07T01:09:44;100672.00;;;10.70
4421;BMP180;11824;51.178;13.546;2023-05-07T01:12:12;100678.00;;;10.70
4421;BMP180;11824;51.178;13.546;2023-05-07T01:14:40;100675.00;;;10.70
4421;BMP180;11824;51.178;13.546;2023-05-07T01:17:08;100674.00;;;10.70
4421;BMP180;11824;51.178;13.546;2023-05-07T01:19:36;100672.00;;;10.70
4421;BMP180;11824;51.178;13.546;2023-05-07T01:22:09;100668.00;;;10.70
4421;BMP180;11824;51.178;13.546;2023-05-07T01:24:38;100677.00;;;10.70
4421;BMP180;11824;51.178;13.546;2023-05-07T01:27:05;100681.00;;;10.70
4421;BMP180;11824;51.178;13.546;2023-05-07T01:29:33;100673.00;;;10.70
4421;BMP180;11824;51.178;13.546;2023-05-07T01:32:01;100679.00;;;10.70
4421;BMP180;11824;51.178;13.546;2023-05-07T01:34:32;100673.00;;;10.70
4421;BMP180;11824;51.178;13.546;2023-05-07T01:37:02;100678.00;;;10.70
4421;BMP180;11824;51.178;13.546;2023-05-07T01:39:31;100688.00;;;10.70
4421;BMP180;11824;51.178;13.546;2023-05-07T01:42:00;100679.00;;;10.70
4421;BMP180;11824;51.178;13.546;2023-05-07T01:44:27;100688.00;;;10.70
4421;BMP180;11824;51.178;13.546;2023-05-07T01:46:55;100680.00;;;10.70
4421;BMP180;11824;51.178;13.546;2023-05-07T01:49:24;100676.00;;;10.60
4421;BMP180;11824;51.178;13.546;2023-05-07T01:51:52;100670.00;;;10.60
4421;BMP180;11824;51.178;13.546;2023-05-07T01:54:19;100665.00;;;10.60
4421;BMP180;11824;51.178;13.546;2023-05-07T01:56:52;100667.00;;;10.60
4421;BMP180;11824;51.178;13.546;2023-05-07T01:59:20;100677.00;;;10.60
4421;BMP180;11824;51.178;13.546;2023-05-07T02:01:47;100670.00;;;10.50
4421;BMP180;11824;51.178;13.546;2023-05-07T02:04:15;100673.00;;;10.50
4421;BMP180;11824;51.178;13.546;2023-05-07T02:06:42;100679.00;;;10.50
4421;BMP180;11824;51.178;13.546;2023-05-07T02:09:10;100679.00;;;10.50
4421;BMP180;11824;51.178;13.546;2023-05-07T02:11:38;100677.00;;;10.50
4421;BMP180;11824;51.178;13.546;2023-05-07T02:14:05;100686.00;;;10.50
4421;BMP180;11824;51.178;13.546;2023-05-07T02:16:33;100688.00;;;10.50
4421;BMP180;11824;51.178;13.546;2023-05-07T02:19:01;100693.00;;;10.50
4421;BMP180;11824;51.178;13.546;2023-05-07T02:21:28;100689.00;;;10.50
4421;BMP180;11824;51.178;13.546;2023-05-07T02:23:57;100691.00;;;10.50
4421;BMP180;11824;51.178;13.546;2023-05-07T02:26:25;100693.00;;;10.50
4421;BMP180;11824;51.178;13.546;2023-05-07T02:28:52;100676.00;;;10.50
4421;BMP180;11824;51.178;13.546;2023-05-07T02:31:20;100682.00;;;10.50
4421;BMP180;11824;51.178;13.546;2023-05-07T02:33:48;100693.00;;;10.40
4421;BMP180;11824;51.178;13.546;2023-05-07T02:36:16;100686.00;;;10.40
4421;BMP180;11824;51.178;13.546;2023-05-07T02:38:43;100686.00;;;10.40
4421;BMP180;11824;51.178;13.546;2023-05-07T02:41:11;100695.00;;;10.40
4421;BMP180;11824;51.178;13.546;2023-05-07T02:43:38;100692.00;;;10.40
4421;BMP180;11824;51.178;13.546;2023-05-07T02:46:07;100693.00;;;10.30
4421;BMP180;11824;51.178;13.546;2023-05-07T02:48:36;100687.00;;;10.30
4421;BMP180;11824;51.178;13.546;2023-05-07T02:51:05;100698.00;;;10.30
4421;BMP180;11824;51.178;13.546;2023-05-07T02:53:32;100690.00;;;10.30
4421;BMP180;11824;51.178;13.546;2023-05-07T02:56:01;100696.00;;;10.20
4421;BMP180;11824;51.178;13.546;2023-05-07T02:58:29;100690.00;;;10.20
4421;BMP180;11824;51.178;13.546;2023-05-07T03:00:56;100691.00;;;10.20
4421;BMP180;11824;51.178;13.546;2023-05-07T03:03:24;100689.00;;;10.20
4421;BMP180;11824;51.178;13.546;2023-05-07T03:05:51;100693.00;;;10.10
4421;BMP180;11824;51.178;13.546;2023-05-07T03:08:19;100679.00;;;10.10
4421;BMP180;11824;51.178;13.546;2023-05-07T03:10:47;100678.00;;;10.10
4421;BMP180;11824;51.178;13.546;2023-05-07T03:13:15;100684.00;;;10.10
4421;BMP180;11824;51.178;13.546;2023-05-07T03:15:42;100690.00;;;10.10
4421;BMP180;11824;51.178;13.546;2023-05-07T03:18:10;100696.00;;;10.10
4421;BMP180;11824;51.178;13.546;2023-05-07T03:20:38;100697.00;;;10.10
4421;BMP180;11824;51.178;13.546;2023-05-07T03:23:05;100699.00;;;10.10
4421;BMP180;11824;51.178;13.546;2023-05-07T03:25:33;100708.00;;;10.10
4421;BMP180;11824;51.178;13.546;2023-05-07T03:28:01;100707.00;;;10.10
4421;BMP180;11824;51.178;13.546;2023-05-07T03:30:28;100698.00;;;10.10
4421;BMP180;11824;51.178;13.546;2023-05-07T03:32:56;100714.00;;;10.10
4421;BMP180;11824;51.178;13.546;2023-05-07T03:35:24;100705.00;;;10.10
4421;BMP180;11824;51.178;13.546;2023-05-07T03:37:51;100707.00;;;10.10
4421;BMP180;11824;51.178;13.546;2023-05-07T03:40:19;100702.00;;;10.10
4421;BMP180;11824;51.178;13.546;2023-05-07T03:42:47;100714.00;;;10.10
4421;BMP180;11824;51.178;13.546;2023-05-07T03:45:14;100714.00;;;10.10
4421;BMP180;11824;51.178;13.546;2023-05-07T03:47:42;100711.00;;;10.10
4421;BMP180;11824;51.178;13.546;2023-05-07T03:50:10;100714.00;;;10.10
4421;BMP180;11824;51.178;13.546;2023-05-07T03:52:38;100711.00;;;10.10
4421;BMP180;11824;51.178;13.546;2023-05-07T03:55:06;100711.00;;;10.00
4421;BMP180;11824;51.178;13.546;2023-05-07T03:57:34;100715.00;;;10.00
4421;BMP180;11824;51.178;13.546;2023-05-07T04:00:02;100716.00;;;10.00
4421;BMP180;11824;51.178;13.546;2023-05-07T04:02:31;100712.00;;;10.00
4421;BMP180;11824;51.178;13.546;2023-05-07T04:04:59;100718.00;;;10.00
4421;BMP180;11824;51.178;13.546;2023-05-07T04:07:26;100722.00;;;10.00
4421;BMP180;11824;51.178;13.546;2023-05-07T04:09:54;100711.00;;;10.00
4421;BMP180;11824;51.178;13.546;2023-05-07T04:12:21;100722.00;;;10.00
4421;BMP180;11824;51.178;13.546;2023-05-07T04:14:49;100727.00;;;10.10
4421;BMP180;11824;51.178;13.546;2023-05-07T04:17:17;100722.00;;;10.00
4421;BMP180;11824;51.178;13.546;2023-05-07T04:19:44;100720.00;;;10.10
4421;BMP180;11824;51.178;13.546;2023-05-07T04:22:12;100731.00;;;10.10
4421;BMP180;11824;51.178;13.546;2023-05-07T04:24:39;100726.00;;;10.20
4421;BMP180;11824;51.178;13.546;2023-05-07T04:27:07;100730.00;;;10.20
4421;BMP180;11824;51.178;13.546;2023-05-07T04:29:34;100735.00;;;10.20
4421;BMP180;11824;51.178;13.546;2023-05-07T04:32:02;100736.00;;;10.20
4421;BMP180;11824;51.178;13.546;2023-05-07T04:34:30;100735.00;;;10.20
4421;BMP180;11824;51.178;13.546;2023-05-07T04:36:59;100755.00;;;10.30
4421;BMP180;11824;51.178;13.546;2023-05-07T04:39:27;100755.00;;;10.30
4421;BMP180;11824;51.178;13.546;2023-05-07T04:41:54;100749.00;;;10.30
4421;BMP180;11824;51.178;13.546;2023-05-07T04:44:22;100756.00;;;10.30
4421;BMP180;11824;51.178;13.546;2023-05-07T04:46:49;100748.00;;;10.30
4421;BMP180;11824;51.178;13.546;2023-05-07T04:49:17;100743.00;;;10.40
4421;BMP180;11824;51.178;13.546;2023-05-07T04:51:45;100750.00;;;10.40
4421;BMP180;11824;51.178;13.546;2023-05-07T04:54:13;100753.00;;;10.40
4421;BMP180;11824;51.178;13.546;2023-05-07T04:56:40;100750.00;;;10.40
4421;BMP180;11824;51.178;13.546;2023-05-07T04:59:08;100751.00;;;10.40
4421;BMP180;11824;51.178;13.546;2023-05-07T05:01:35;100760.00;;;10.50
4421;BMP180;11824;51.178;13.546;2023-05-07T05:04:03;100754.00;;;10.50
4421;BMP180;11824;51.178;13.546;2023-05-07T05:06:31;100753.00;;;10.50
4421;BMP180;11824;51.178;13.546;2023-05-07T05:08:59;100763.00;;;10.50
4421;BMP180;11824;51.178;13.546;2023-05-07T05:11:27;100765.00;;;10.50
4421;BMP180;11824;51.178;13.546;2023-05-07T05:13:54;100761.00;;;10.60
4421;BMP180;11824;51.178;13.546;2023-05-07T05:16:22;100754.00;;;10.60
4421;BMP180;11824;51.178;13.546;2023-05-07T05:18:49;100756.00;;;10.60
4421;BMP180;11824;51.178;13.546;2023-05-07T05:21:18;100755.00;;;10.60
4421;BMP180;11824;51.178;13.546;2023-05-07T05:23:46;100757.00;;;10.60
4421;BMP180;11824;51.178;13.546;2023-05-07T05:26:14;100752.00;;;10.60
4421;BMP180;11824;51.178;13.546;2023-05-07T05:28:42;100760.00;;;10.70
4421;BMP180;11824;51.178;13.546;2023-05-07T05:31:09;100772.00;;;10.70
4421;BMP180;11824;51.178;13.546;2023-05-07T05:33:37;100781.00;;;10.80
4421;BMP180;11824;51.178;13.546;2023-05-07T05:36:05;100779.00;;;10.80
4421;BMP180;11824;51.178;13.546;2023-05-07T05:38:33;100783.00;;;10.80
4421;BMP180;11824;51.178;13.546;2023-05-07T05:41:00;100779.00;;;10.80
4421;BMP180;11824;51.178;13.546;2023-05-07T05:43:28;100786.00;;;10.80
4421;BMP180;11824;51.178;13.546;2023-05-07T05:45:56;100793.00;;;10.90
4421;BMP180;11824;51.178;13.546;2023-05-07T05:48:24;100786.00;;;10.90
4421;BMP180;11824;51.178;13.546;2023-05-07T05:50:52;100791.00;;;11.00
4421;BMP180;11824;51.178;13.546;2023-05-07T05:53:19;100793.00;;;11.10
4421;BMP180;11824;51.178;13.546;2023-05-07T05:55:47;100792.00;;;11.20
4421;BMP180;11824;51.178;13.546;2023-05-07T05:58:15;100793.00;;;11.30
4421;BMP180;11824;51.178;13.546;2023-05-07T06:00:43;100801.00;;;11.40
4421;BMP180;11824;51.178;13.546;2023-05-07T06:03:11;100804.00;;;11.40
4421;BMP180;11824;51.178;13.546;2023-05-07T06:05:40;100804.00;;;11.50
4421;BMP180;11824;51.178;13.546;2023-05-07T06:08:08;100801.00;;;11.50
4421;BMP180;11824;51.178;13.546;2023-05-07T06:10:36;100816.00;;;11.60
4421;BMP180;11824;51.178;13.546;2023-05-07T06:13:04;100816.00;;;11.60
4421;BMP180;11824;51.178;13.546;2023-05-07T06:15:31;100829.00;;;11.70
4421;BMP180;11824;51.178;13.546;2023-05-07T06:18:00;100825.00;;;11.70
4421;BMP180;11824;51.178;13.546;2023-05-07T06:20:27;100826.00;;;11.70
4421;BMP180;11824;51.178;13.546;2023-05-07T06:22:55;100814.00;;;11.80
4421;BMP180;11824;51.178;13.546;2023-05-07T06:25:22;100814.00;;;11.80
4421;BMP180;11824;51.178;13.546;2023-05-07T06:27:50;100815.00;;;11.90
4421;BMP180;11824;51.178;13.546;2023-05-07T06:30:17;100816.00;;;11.90
4421;BMP180;11824;51.178;13.546;2023-05-07T06:32:45;100822.00;;;11.90
4421;BMP180;11824;51.178;13.546;2023-05-07T06:35:13;100825.00;;;11.90
4421;BMP180;11824;51.178;13.546;2023-05-07T06:37:41;100830.00;;;11.90
4421;BMP180;11824;51.178;13.546;2023-05-07T06:40:10;100847.00;;;11.90
4421;BMP180;11824;51.178;13.546;2023-05-07T06:42:38;100838.00;;;11.90
4421;BMP180;11824;51.178;13.546;2023-05-07T06:45:06;100849.00;;;11.90
4421;BMP180;11824;51.178;13.546;2023-05-07T06:47:35;100835.00;;;11.90
4421;BMP180;11824;51.178;13.546;2023-05-07T06:50:02;100845.00;;;11.80
4421;BMP180;11824;51.178;13.546;2023-05-07T06:52:31;100844.00;;;11.80
4421;BMP180;11824;51.178;13.546;2023-05-07T06:54:59;100854.00;;;11.80
4421;BMP180;11824;51.178;13.546;2023-05-07T06:57:26;100859.00;;;11.70
4421;BMP180;11824;51.178;13.546;2023-05-07T06:59:54;100857.00;;;11.60
4421;BMP180;11824;51.178;13.546;2023-05-07T07:02:22;100849.00;;;11.60
4421;BMP180;11824;51.178;13.546;2023-05-07T07:04:49;100844.00;;;11.50
4421;BMP180;11824;51.178;13.546;2023-05-07T07:07:17;100848.00;;;11.50
4421;BMP180;11824;51.178;13.546;2023-05-07T07:09:45;100846.00;;;11.40
4421;BMP180;11824;51.178;13.546;2023-05-07T07:12:12;100844.00;;;11.40
4421;BMP180;11824;51.178;13.546;2023-05-07T07:14:40;100856.00;;;11.40
4421;BMP180;11824;51.178;13.546;2023-05-07T07:17:07;100855.00;;;11.40
4421;BMP180;11824;51.178;13.546;2023-05-07T07:19:35;100854.00;;;11.40
4421;BMP180;11824;51.178;13.546;2023-05-07T07:22:02;100854.00;;;11.40
4421;BMP180;11824;51.178;13.546;2023-05-07T07:24:30;100854.00;;;11.50
4421;BMP180;11824;51.178;13.546;2023-05-07T07:26:58;100863.00;;;11.50
4421;BMP180;11824;51.178;13.546;2023-05-07T07:29:25;100853.00;;;11.50
4421;BMP180;11824;51.178;13.546;2023-05-07T07:31:53;100851.00;;;11.50
4421;BMP180;11824;51.178;13.546;2023-05-07T07:34:21;100855.00;;;11.60
4421;BMP180;11824;51.178;13.546;2023-05-07T07:36:49;100865.00;;;11.60
4421;BMP180;11824;51.178;13.546;2023-05-07T07:39:16;100861.00;;;11.70
4421;BMP180;11824;51.178;13.546;2023-05-07T07:41:44;100866.00;;;11.80
4421;BMP180;11824;51.178;13.546;2023-05-07T07:44:12;100874.00;;;11.90
4421;BMP180;11824;51.178;13.546;2023-05-07T07:46:42;100865.00;;;11.90
4421;BMP180;11824;51.178;13.546;2023-05-07T07:49:10;100873.00;;;12.00
4421;BMP180;11824;51.178;13.546;2023-05-07T07:51:37;100870.00;;;12.10
4421;BMP180;11824;51.178;13.546;2023-05-07T07:54:05;100869.00;;;12.10
4421;BMP180;11824;51.178;13.546;2023-05-07T07:56:33;100882.00;;;12.10
4421;BMP180;11824;51.178;13.546;2023-05-07T07:59:01;100883.00;;;12.10
4421;BMP180;11824;51.178;13.546;2023-05-07T08:01:30;100876.00;;;12.00
4421;BMP180;11824;51.178;13.546;2023-05-07T08:03:58;100885.00;;;12.00
4421;BMP180;11824;51.178;13.546;2023-05-07T08:06:26;100879.00;;;12.00
4421;BMP180;11824;51.178;13.546;2023-05-07T08:08:53;100880.00;;;12.00
4421;BMP180;11824;51.178;13.546;2023-05-07T08:11:21;100895.00;;;12.10
4421;BMP180;11824;51.178;13.546;2023-05-07T08:13:48;100906.00;;;12.10
4421;BMP180;11824;51.178;13.546;2023-05-07T08:16:17;100894.00;;;12.10
4421;BMP180;11824;51.178;13.546;2023-05-07T08:18:45;100903.00;;;12.20
4421;BMP180;11824;51.178;13.546;2023-05-07T08:21:12;100902.00;;;12.20
4421;BMP180;11824;51.178;13.546;2023-05-07T08:23:40;100901.00;;;12.20
4421;BMP180;11824;51.178;13.546;2023-05-07T08:26:08;100911.00;;;12.20
4421;BMP180;11824;51.178;13.546;2023-05-07T08:28:36;100900.00;;;12.20
4421;BMP180;11824;51.178;13.546;2023-05-07T08:31:03;100897.00;;;12.30
4421;BMP180;11824;51.178;13.546;2023-05-07T08:33:31;100892.00;;;12.30
4421;BMP180;11824;51.178;13.546;2023-05-07T08:36:00;100896.00;;;12.20
4421;BMP180;11824;51.178;13.546;2023-05-07T08:38:27;100905.00;;;12.20
4421;BMP180;11824;51.178;13.546;2023-05-07T08:40:55;100899.00;;;12.30
4421;BMP180;11824;51.178;13.546;2023-05-07T08:43:25;100895.00;;;12.30
4421;BMP180;11824;51.178;13.546;2023-05-07T08:45:54;100902.00;;;12.30
4421;BMP180;11824;51.178;13.546;2023-05-07T08:48:24;100899.00;;;12.40
4421;BMP180;11824;51.178;13.546;2023-05-07T08:51:17;100904.00;;;12.60
4421;BMP180;11824;51.178;13.546;2023-05-07T08:53:47;100904.00;;;12.70
4421;BMP180;11824;51.178;13.546;2023-05-07T08:56:21;100909.00;;;12.80
4421;BMP180;11824;51.178;13.546;2023-05-07T08:58:58;100912.00;;;12.90
4421;BMP180;11824;51.178;13.546;2023-05-07T09:01:36;100923.00;;;12.90
4421;BMP180;11824;51.178;13.546;2023-05-07T09:04:13;100916.00;;;12.80
4421;BMP180;11824;51.178;13.546;2023-05-07T09:07:09;100912.00;;;12.80
4421;BMP180;11824;51.178;13.546;2023-05-07T09:09:51;100913.00;;;12.80
4421;BMP180;11824;51.178;13.546;2023-05-07T09:12:41;100917.00;;;12.70
4421;BMP180;11824;51.178;13.546;2023-05-07T09:15:20;100931.00;;;12.70
4421;BMP180;11824;51.178;13.546;2023-05-07T09:17:54;100930.00;;;12.70
4421;BMP180;11824;51.178;13.546;2023-05-07T09:20:22;100937.00;;;12.60
4421;BMP180;11824;51.178;13.546;2023-05-07T09:22:50;100935.00;;;12.60
4421;BMP180;11824;51.178;13.546;2023-05-07T09:25:35;100941.00;;;12.50
4421;BMP180;11824;51.178;13.546;2023-05-07T09:28:05;100935.00;;;12.40
4421;BMP180;11824;51.178;13.546;2023-05-07T09:30:39;100932.00;;;12.40
4421;BMP180;11824;51.178;13.546;2023-05-07T09:33:10;100934.00;;;12.40
4421;BMP180;11824;51.178;13.546;2023-05-07T09:38:40;100931.00;;;12.50
4421;BMP180;11824;51.178;13.546;2023-05-07T09:41:13;100937.00;;;12.50
4421;BMP180;11824;51.178;13.546;2023-05-07T09:43:47;100941.00;;;12.40
4421;BMP180;11824;51.178;13.546;2023-05-07T09:46:34;100949.00;;;12.30
4421;BMP180;11824;51.178;13.546;2023-05-07T09:49:16;100933.00;;;12.20
4421;BMP180;11824;51.178;13.546;2023-05-07T09:51:50;100939.00;;;12.20
4421;BMP180;11824;51.178;13.546;2023-05-07T09:54:21;100946.00;;;12.20
4421;BMP180;11824;51.178;13.546;2023-05-07T09:56:51;100952.00;;;12.20
4421;BMP180;11824;51.178;13.546;2023-05-07T09:59:28;100954.00;;;12.30
4421;BMP180;11824;51.178;13.546;2023-05-07T10:02:04;100952.00;;;12.30
4421;BMP180;11824;51.178;13.546;2023-05-07T10:04:34;100953.00;;;12.40
4421;BMP180;11824;51.178;13.546;2023-05-07T10:07:05;100944.00;;;12.30
4421;BMP180;11824;51.178;13.546;2023-05-07T10:09:37;100955.00;;;12.30
4421;BMP180;11824;51.178;13.546;2023-05-07T10:12:06;100951.00;;;12.30
4421;BMP180;11824;51.178;13.546;2023-05-07T10:14:38;100944.00;;;12.30
4421;BMP180;11824;51.178;13.546;2023-05-07T10:17:12;100953.00;;;12.30
4421;BMP180;11824;51.178;13.546;2023-05-07T10:19:50;100954.00;;;12.30
4421;BMP180;11824;51.178;13.546;2023-05-07T10:22:25;100958.00;;;12.30
4421;BMP180;11824;51.178;13.546;2023-05-07T10:25:00;100959.00;;;12.30
4421;BMP180;11824;51.178;13.546;2023-05-07T10:27:39;100957.00;;;12.30
4421;BMP180;11824;51.178;13.546;2023-05-07T10:31:08;100938.00;;;12.40
4421;BMP180;11824;51.178;13.546;2023-05-07T10:33:42;100945.00;;;12.50
4421;BMP180;11824;51.178;13.546;2023-05-07T10:36:12;100955.00;;;12.60
4421;BMP180;11824;51.178;13.546;2023-05-07T10:38:40;100951.00;;;12.70
4421;BMP180;11824;51.178;13.546;2023-05-07T10:41:12;100944.00;;;12.90
4421;BMP180;11824;51.178;13.546;2023-05-07T10:43:43;100933.00;;;13.00
4421;BMP180;11824;51.178;13.546;2023-05-07T11:41:18;100931.00;;;14.50
4421;BMP180;11824;51.178;13.546;2023-05-07T11:43:57;100935.00;;;14.50
4421;BMP180;11824;51.178;13.546;2023-05-07T11:46:26;100947.00;;;14.50
4421;BMP180;11824;51.178;13.546;2023-05-07T11:48:56;100939.00;;;14.40
4421;BMP180;11824;51.178;13.546;2023-05-07T11:51:24;100933.00;;;14.40
4421;BMP180;11824;51.178;13.546;2023-05-07T11:53:53;100934.00;;;14.40
4421;BMP180;11824;51.178;13.546;2023-05-07T11:56:21;100929.00;;;14.50
4421;BMP180;11824;51.178;13.546;2023-05-07T11:58:49;100932.00;;;14.70
4421;BMP180;11824;51.178;13.546;2023-05-07T12:01:18;100938.00;;;14.80
4421;BMP180;11824;51.178;13.546;2023-05-07T12:03:46;100940.00;;;15.00
4421;BMP180;11824;51.178;13.546;2023-05-07T12:06:15;100933.00;;;15.00
4421;BMP180;11824;51.178;13.546;2023-05-07T12:08:44;100939.00;;;15.00
4421;BMP180;11824;51.178;13.546;2023-05-07T12:11:15;100934.00;;;14.90
4421;BMP180;11824;51.178;13.546;2023-05-07T12:13:45;100941.00;;;14.80
4421;BMP180;11824;51.178;13.546;2023-05-07T12:16:13;100948.00;;;14.70
4421;BMP180;11824;51.178;13.546;2023-05-07T12:18:41;100932.00;;;14.70
4421;BMP180;11824;51.178;13.546;2023-05-07T12:21:09;100936.00;;;14.80
4421;BMP180;11824;51.178;13.546;2023-05-07T12:23:38;100935.00;;;14.90
4421;BMP180;11824;51.178;13.546;2023-05-07T12:26:06;100938.00;;;15.10
4421;BMP180;11824;51.178;13.546;2023-05-07T12:28:37;100940.00;;;15.20
4421;BMP180;11824;51.178;13.546;2023-05-07T12:31:07;100940.00;;;15.30
4421;BMP180;11824;51.178;13.546;2023-05-07T12:33:36;100950.00;;;15.30
4421;BMP180;11824;51.178;13.546;2023-05-07T12:36:05;100960.00;;;15.30
4421;BMP180;11824;51.178;13.546;2023-05-07T12:38:38;100950.00;;;15.20
4421;BMP180;11824;51.178;13.546;2023-05-07T12:41:08;100946.00;;;15.10
4421;BMP180;11824;51.178;13.546;2023-05-07T12:43:35;100939.00;;;15.10
4421;BMP180;11824;51.178;13.546;2023-05-07T12:46:05;100949.00;;;15.10
4421;BMP180;11824;51.178;13.546;2023-05-07T12:48:35;100935.00;;;15.10
4421;BMP180;11824;51.178;13.546;2023-05-07T12:51:03;100932.00;;;15.20
4421;BMP180;11824;51.178;13.546;2023-05-07T12:53:32;100950.00;;;15.30
4421;BMP180;11824;51.178;13.546;2023-05-07T12:56:00;100936.00;;;15.30
4421;BMP180;11824;51.178;13.546;2023-05-07T12:58:30;100946.00;;;15.40
4421;BMP180;11824;51.178;13.546;2023-05-07T13:01:00;100936.00;;;15.50
4421;BMP180;11824;51.178;13.546;2023-05-07T13:03:29;100937.00;;;15.60
4421;BMP180;11824;51.178;13.546;2023-05-07T13:06:00;100943.00;;;15.80
4421;BMP180;11824;51.178;13.546;2023-05-07T13:08:30;100934.00;;;15.80
4421;BMP180;11824;51.178;13.546;2023-05-07T13:11:00;100930.00;;;15.90
4421;BMP180;11824;51.178;13.546;2023-05-07T13:13:30;100926.00;;;15.90
4421;BMP180;11824;51.178;13.546;2023-05-07T13:15:59;100934.00;;;16.00
4421;BMP180;11824;51.178;13.546;2023-05-07T13:18:29;100920.00;;;16.00
4421;BMP180;11824;51.178;13.546;2023-05-07T13:20:58;100922.00;;;16.00
4421;BMP180;11824;51.178;13.546;2023-05-07T13:23:25;100919.00;;;16.10
4421;BMP180;11824;51.178;13.546;2023-05-07T13:25:53;100918.00;;;16.10
4421;BMP180;11824;51.178;13.546;2023-05-07T13:28:21;100922.00;;;16.00
4421;BMP180;11824;51.178;13.546;2023-05-07T13:30:49;100911.00;;;16.00
4421;BMP180;11824;51.178;13.546;2023-05-07T13:33:18;100906.00;;;16.00
4421;BMP180;11824;51.178;13.546;2023-05-07T13:35:46;100906.00;;;16.10
4421;BMP180;11824;51.178;13.546;2023-05-07T13:38:14;100909.00;;;16.10
4421;BMP180;11824;51.178;13.546;2023-05-07T13:40:42;100916.00;;;16.10
4421;BMP180;11824;51.178;13.546;2023-05-07T13:43:10;100919.00;;;16.00
4421;BMP180;11824;51.178;13.546;2023-05-07T13:45:38;100927.00;;;16.00
4421;BMP180;11824;51.178;13.546;2023-05-07T13:48:06;100912.00;;;15.90
4421;BMP180;11824;51.178;13.546;2023-05-07T13:50:33;100910.00;;;15.90
4421;BMP180;11824;51.178;13.546;2023-05-07T13:53:02;100931.00;;;15.90
4421;BMP180;11824;51.178;13.546;2023-05-07T13:55:31;100921.00;;;15.90
4421;BMP180;11824;51.178;13.546;2023-05-07T13:57:59;100923.00;;;15.80
4421;BMP180;11824;51.178;13.546;2023-05-07T14:00:28;100926.00;;;15.80
4421;BMP180;11824;51.178;13.546;2023-05-07T14:02:56;100914.00;;;15.70
4421;BMP180;11824;51.178;13.546;2023-05-07T14:05:24;100919.00;;;15.80
4421;BMP180;11824;51.178;13.546;2023-05-07T14:07:52;100919.00;;;15.80
4421;BMP180;11824;51.178;13.546;2023-05-07T14:10:20;100919.00;;;15.90
4421;BMP180;11824;51.178;13.546;2023-05-07T14:12:49;100924.00;;;15.80
4421;BMP180;11824;51.178;13.546;2023-05-07T14:15:16;100915.00;;;15.70
4421;BMP180;11824;51.178;13.546;2023-05-07T14:17:44;100917.00;;;15.60
4421;BMP180;11824;51.178;13.546;2023-05-07T14:20:33;100909.00;;;15.50
4421;BMP180;11824;51.178;13.546;2023-05-07T14:23:21;100909.00;;;15.40
4421;BMP180;11824;51.178;13.546;2023-05-07T14:26:09;100917.00;;;15.30
4421;BMP180;11824;51.178;13.546;2023-05-07T14:28:38;100907.00;;;15.30
4421;BMP180;11824;51.178;13.546;2023-05-07T14:31:06;100910.00;;;15.30
4421;BMP180;11824;51.178;13.546;2023-05-07T14:33:33;100900.00;;;15.30
4421;BMP180;11824;51.178;13.546;2023-05-07T14:36:01;100900.00;;;15.30
4421;BMP180;11824;51.178;13.546;2023-05-07T14:38:29;100890.00;;;15.30
4421;BMP180;11824;51.178;13.546;2023-05-07T14:40:57;100902.00;;;15.30
4421;BMP180;11824;51.178;13.546;2023-05-07T14:43:24;100904.00;;;15.30
4421;BMP180;11824;51.178;13.546;2023-05-07T14:45:53;100912.00;;;15.30
4421;BMP180;11824;51.178;13.546;2023-05-07T14:48:20;100906.00;;;15.20
4421;BMP180;11824;51.178;13.546;2023-05-07T14:50:48;100909.00;;;15.20
4421;BMP180;11824;51.178;13.546;2023-05-07T14:53:16;100898.00;;;15.20
4421;BMP180;11824;51.178;13.546;2023-05-07T14:55:43;100912.00;;;15.20
4421;BMP180;11824;51.178;13.546;2023-05-07T14:58:11;100904.00;;;15.20
4421;BMP180;11824;51.178;13.546;2023-05-07T15:00:38;100905.00;;;15.10
4421;BMP180;11824;51.178;13.546;2023-05-07T15:03:08;100905.00;;;15.10
4421;BMP180;11824;51.178;13.546;2023-05-07T15:05:36;100904.00;;;15.10